KTTD/TTD METAR and TAF weather

Enter ICAO airport designator
Station Type Date Time Source
KTTD METAR 2020/07/12 17:53 UTC NOAA

KTTD 121753Z VRB04KT 10SM FEW027 SCT043 OVC050 20/12 A3015 RMK AO2 SLP210 T02000122 10200 20167 55003


Station Type Date Time Source
KTTD Decoded METAR 2020/07/12 17:53 UTC NOAA

PORTLAND-TROUTDALE AIRPORT, OR, United States (KTTD) 45-33N 122-25W 14M
Jul 12, 2020 - 01:53 PM EDT / 2020.07.12 1753 UTC
Wind: Variable at 5 MPH (4 KT):0
Visibility: 10 mile(s):0
Sky conditions: overcast
Temperature: 68.0 F (20.0 C)
Dew Point: 54.0 F (12.2 C)
Relative Humidity: 60%
Pressure (altimeter): 30.15 in. Hg (1020 hPa)
Pressure tendency: 0.01 inches (0.3 hPa) lower than three hours ago
ob: KTTD 121753Z VRB04KT 10SM FEW027 SCT043 OVC050 20/12 A3015 RMK AO2 SLP210 T02000122 10200 20167 55003
cycle: 18

Station Type Date Time Source
KTTD TAF 2020/07/12 18:33 UTC NOAA

TAF KTTD 121730Z 1218/1318 VRB03KT P6SM SCT030 OVC045
FM122100 29006KT P6SM SCT060 SCT100
FM130600 VRB03KT P6SM SCT060 BKN100

Example: see airport list